Pike, California
Current Conditions -  °F | °C
As of 10:40 PM on Wednesday 26 Nov 2014 (Local Time) from KGOO Reporting Station
Clear Clear  
Wind Chill: 59°   Ceiling: Unl
Heat Index: 59°   Visibility: 10mi
Dew Point: 36°   Wind: 6mph
Humidity: 42%   Direction: 120°ESE
Pressure: 30.29"   Gusts: NA
Location:  39.3506°N, 121.137°W
Report Text: KGOO 270640Z AUTO 12005KT 10SM CLR 15/02 A3029 RMK AO1
Loading
Personal Weather Stations






























Interactive Weather Map New forecast layout! Learn more

10-Day Weather Forecast

Advertisements
Track Severe Weather on mobile